sensor_id;sensor_type;location;lat;lon;timestamp;P1;durP1;ratioP1;P2;durP2;ratioP2
43664;SDS011;29263;48.172;11.484;2023-04-07T08:04:38;5.70;;;3.63;;
43664;SDS011;29263;48.172;11.484;2023-04-07T08:07:04;5.97;;;3.60;;
43664;SDS011;29263;48.172;11.484;2023-04-07T08:09:29;4.33;;;3.50;;
43664;SDS011;29263;48.172;11.484;2023-04-07T08:11:56;5.97;;;4.10;;
43664;SDS011;29263;48.172;11.484;2023-04-07T08:14:22;5.43;;;4.53;;
43664;SDS011;29263;48.172;11.484;2023-04-07T08:16:48;6.37;;;4.40;;
43664;SDS011;29263;48.172;11.484;2023-04-07T08:19:13;6.27;;;3.90;;
43664;SDS011;29263;48.172;11.484;2023-04-07T08:21:39;5.43;;;3.90;;
43664;SDS011;29263;48.172;11.484;2023-04-07T08:24:05;5.07;;;3.23;;
43664;SDS011;29263;48.172;11.484;2023-04-07T08:26:33;4.50;;;3.40;;
43664;SDS011;29263;48.172;11.484;2023-04-07T08:28:59;5.13;;;3.60;;
43664;SDS011;29263;48.172;11.484;2023-04-07T08:31:25;7.23;;;3.83;;
43664;SDS011;29263;48.172;11.484;2023-04-07T08:33:50;4.77;;;3.60;;
43664;SDS011;29263;48.172;11.484;2023-04-07T08:36:22;6.23;;;3.37;;
43664;SDS011;29263;48.172;11.484;2023-04-07T08:38:48;7.30;;;3.73;;
43664;SDS011;29263;48.172;11.484;2023-04-07T08:41:16;5.80;;;3.80;;
43664;SDS011;29263;48.172;11.484;2023-04-07T08:43:47;6.90;;;3.90;;
43664;SDS011;29263;48.172;11.484;2023-04-07T08:46:14;5.93;;;3.43;;
43664;SDS011;29263;48.172;11.484;2023-04-07T08:48:43;5.87;;;3.47;;
43664;SDS011;29263;48.172;11.484;2023-04-07T08:51:09;5.67;;;3.10;;
43664;SDS011;29263;48.172;11.484;2023-04-07T08:53:47;5.35;;;4.25;;
43664;SDS011;29263;48.172;11.484;2023-04-07T08:56:16;4.77;;;3.60;;
43664;SDS011;29263;48.172;11.484;2023-04-07T08:58:42;4.67;;;3.77;;
43664;SDS011;29263;48.172;11.484;2023-04-07T09:01:09;5.07;;;3.13;;
43664;SDS011;29263;48.172;11.484;2023-04-07T09:03:35;5.73;;;3.63;;
43664;SDS011;29263;48.172;11.484;2023-04-07T09:06:02;5.47;;;3.53;;
43664;SDS011;29263;48.172;11.484;2023-04-07T09:08:28;4.77;;;3.33;;
43664;SDS011;29263;48.172;11.484;2023-04-07T09:10:55;5.47;;;3.80;;
43664;SDS011;29263;48.172;11.484;2023-04-07T09:13:21;4.70;;;3.70;;
43664;SDS011;29263;48.172;11.484;2023-04-07T09:15:48;4.13;;;3.30;;
43664;SDS011;29263;48.172;11.484;2023-04-07T09:18:14;5.50;;;3.57;;
43664;SDS011;29263;48.172;11.484;2023-04-07T09:20:56;5.83;;;3.83;;
43664;SDS011;29263;48.172;11.484;2023-04-07T09:23:27;5.13;;;3.93;;
43664;SDS011;29263;48.172;11.484;2023-04-07T09:25:56;4.40;;;3.53;;
43664;SDS011;29263;48.172;11.484;2023-04-07T09:31:06;6.43;;;3.30;;
43664;SDS011;29263;48.172;11.484;2023-04-07T09:33:32;5.28;;;3.80;;
43664;SDS011;29263;48.172;11.484;2023-04-07T09:38:44;4.83;;;3.60;;
43664;SDS011;29263;48.172;11.484;2023-04-07T09:43:41;4.30;;;3.67;;
43664;SDS011;29263;48.172;11.484;2023-04-07T09:46:14;6.68;;;3.83;;
43664;SDS011;29263;48.172;11.484;2023-04-07T09:48:42;4.43;;;3.70;;
43664;SDS011;29263;48.172;11.484;2023-04-07T09:51:10;4.75;;;3.38;;
43664;SDS011;29263;48.172;11.484;2023-04-07T09:53:47;4.40;;;3.42;;
43664;SDS011;29263;48.172;11.484;2023-04-07T09:56:15;7.22;;;3.83;;
43664;SDS011;29263;48.172;11.484;2023-04-07T09:58:46;4.28;;;3.42;;
43664;SDS011;29263;48.172;11.484;2023-04-07T10:01:15;5.85;;;3.70;;
43664;SDS011;29263;48.172;11.484;2023-04-07T10:03:42;4.00;;;3.30;;
43664;SDS011;29263;48.172;11.484;2023-04-07T10:06:08;3.90;;;2.95;;
43664;SDS011;29263;48.172;11.484;2023-04-07T10:08:35;5.38;;;3.78;;
43664;SDS011;29263;48.172;11.484;2023-04-07T10:11:02;5.25;;;3.47;;
43664;SDS011;29263;48.172;11.484;2023-04-07T10:13:29;4.03;;;3.15;;
43664;SDS011;29263;48.172;11.484;2023-04-07T10:15:56;6.38;;;4.03;;
43664;SDS011;29263;48.172;11.484;2023-04-07T10:18:24;5.32;;;3.78;;
43664;SDS011;29263;48.172;11.484;2023-04-07T10:20:55;5.90;;;3.58;;
43664;SDS011;29263;48.172;11.484;2023-04-07T10:24:07;4.65;;;3.15;;
43664;SDS011;29263;48.172;11.484;2023-04-07T10:26:25;5.38;;;3.10;;
43664;SDS011;29263;48.172;11.484;2023-04-07T10:28:54;5.60;;;3.88;;
43664;SDS011;29263;48.172;11.484;2023-04-07T10:31:31;4.78;;;3.78;;
43664;SDS011;29263;48.172;11.484;2023-04-07T10:33:57;4.43;;;3.70;;
43664;SDS011;29263;48.172;11.484;2023-04-07T10:36:23;5.05;;;3.60;;
43664;SDS011;29263;48.172;11.484;2023-04-07T10:44:05;7.25;;;3.80;;
43664;SDS011;29263;48.172;11.484;2023-04-07T10:49:09;6.50;;;3.78;;
43664;SDS011;29263;48.172;11.484;2023-04-07T10:51:37;5.28;;;3.83;;
43664;SDS011;29263;48.172;11.484;2023-04-07T10:54:16;5.30;;;3.85;;
43664;SDS011;29263;48.172;11.484;2023-04-07T10:59:30;5.25;;;4.35;;
43664;SDS011;29263;48.172;11.484;2023-04-07T11:04:44;5.30;;;3.70;;
43664;SDS011;29263;48.172;11.484;2023-04-07T11:07:12;6.60;;;4.35;;
43664;SDS011;29263;48.172;11.484;2023-04-07T11:09:39;6.40;;;4.50;;
43664;SDS011;29263;48.172;11.484;2023-04-07T11:12:05;5.40;;;3.67;;
43664;SDS011;29263;48.172;11.484;2023-04-07T11:14:32;5.65;;;3.60;;
43664;SDS011;29263;48.172;11.484;2023-04-07T11:16:58;4.25;;;3.30;;
43664;SDS011;29263;48.172;11.484;2023-04-07T11:19:27;5.53;;;3.85;;
43664;SDS011;29263;48.172;11.484;2023-04-07T11:22:13;5.93;;;4.45;;
43664;SDS011;29263;48.172;11.484;2023-04-07T11:24:39;6.10;;;4.00;;
43664;SDS011;29263;48.172;11.484;2023-04-07T11:27:05;5.32;;;3.45;;
43664;SDS011;29263;48.172;11.484;2023-04-07T11:29:36;4.38;;;3.30;;
43664;SDS011;29263;48.172;11.484;2023-04-07T11:32:02;4.75;;;3.50;;
43664;SDS011;29263;48.172;11.484;2023-04-07T11:34:29;4.75;;;3.63;;
43664;SDS011;29263;48.172;11.484;2023-04-07T11:37:18;4.25;;;3.63;;
43664;SDS011;29263;48.172;11.484;2023-04-07T11:39:53;5.07;;;3.17;;
43664;SDS011;29263;48.172;11.484;2023-04-07T11:42:32;4.40;;;3.50;;
43664;SDS011;29263;48.172;11.484;2023-04-07T11:44:59;4.32;;;3.60;;
43664;SDS011;29263;48.172;11.484;2023-04-07T11:47:44;4.43;;;3.38;;
43664;SDS011;29263;48.172;11.484;2023-04-07T11:50:10;4.78;;;3.60;;
43664;SDS011;29263;48.172;11.484;2023-04-07T11:55:18;5.18;;;3.83;;
43664;SDS011;29263;48.172;11.484;2023-04-07T11:57:45;6.38;;;3.90;;
43664;SDS011;29263;48.172;11.484;2023-04-07T12:00:12;5.20;;;4.05;;
43664;SDS011;29263;48.172;11.484;2023-04-07T12:02:38;5.65;;;3.78;;
43664;SDS011;29263;48.172;11.484;2023-04-07T12:05:04;5.45;;;3.97;;
43664;SDS011;29263;48.172;11.484;2023-04-07T12:07:30;5.00;;;3.72;;
43664;SDS011;29263;48.172;11.484;2023-04-07T12:09:57;3.95;;;3.38;;
43664;SDS011;29263;48.172;11.484;2023-04-07T12:12:26;8.23;;;4.10;;
43664;SDS011;29263;48.172;11.484;2023-04-07T12:14:53;6.28;;;3.72;;
43664;SDS011;29263;48.172;11.484;2023-04-07T12:17:22;4.55;;;3.35;;
43664;SDS011;29263;48.172;11.484;2023-04-07T12:19:49;4.63;;;3.58;;
43664;SDS011;29263;48.172;11.484;2023-04-07T12:22:15;5.88;;;4.18;;
43664;SDS011;29263;48.172;11.484;2023-04-07T12:24:40;7.80;;;4.10;;
43664;SDS011;29263;48.172;11.484;2023-04-07T12:27:06;5.90;;;4.22;;
43664;SDS011;29263;48.172;11.484;2023-04-07T12:29:33;6.50;;;3.45;;
43664;SDS011;29263;48.172;11.484;2023-04-07T12:31:58;4.55;;;3.67;;
43664;SDS011;29263;48.172;11.484;2023-04-07T12:34:24;3.75;;;3.05;;
43664;SDS011;29263;48.172;11.484;2023-04-07T12:36:51;4.07;;;3.05;;
43664;SDS011;29263;48.172;11.484;2023-04-07T12:39:17;5.40;;;3.42;;
43664;SDS011;29263;48.172;11.484;2023-04-07T12:41:43;5.38;;;3.90;;
43664;SDS011;29263;48.172;11.484;2023-04-07T12:44:09;4.75;;;3.35;;
43664;SDS011;29263;48.172;11.484;2023-04-07T12:46:35;5.20;;;3.88;;
43664;SDS011;29263;48.172;11.484;2023-04-07T12:49:01;4.57;;;3.63;;
43664;SDS011;29263;48.172;11.484;2023-04-07T12:51:27;6.15;;;4.38;;
43664;SDS011;29263;48.172;11.484;2023-04-07T12:53:53;6.00;;;4.03;;
43664;SDS011;29263;48.172;11.484;2023-04-07T12:56:19;5.53;;;3.67;;
43664;SDS011;29263;48.172;11.484;2023-04-07T12:58:46;5.38;;;3.70;;
43664;SDS011;29263;48.172;11.484;2023-04-07T13:01:12;5.32;;;3.83;;
43664;SDS011;29263;48.172;11.484;2023-04-07T13:03:38;5.68;;;4.10;;
43664;SDS011;29263;48.172;11.484;2023-04-07T13:06:04;5.63;;;4.50;;
43664;SDS011;29263;48.172;11.484;2023-04-07T13:08:29;5.05;;;3.85;;
43664;SDS011;29263;48.172;11.484;2023-04-07T13:10:55;4.90;;;3.58;;
43664;SDS011;29263;48.172;11.484;2023-04-07T13:13:21;4.72;;;3.78;;
43664;SDS011;29263;48.172;11.484;2023-04-07T13:15:47;6.50;;;4.65;;
43664;SDS011;29263;48.172;11.484;2023-04-07T13:18:13;7.38;;;4.20;;
43664;SDS011;29263;48.172;11.484;2023-04-07T13:20:39;5.35;;;4.00;;
43664;SDS011;29263;48.172;11.484;2023-04-07T13:23:05;5.30;;;4.00;;
43664;SDS011;29263;48.172;11.484;2023-04-07T13:25:30;4.68;;;3.88;;
43664;SDS011;29263;48.172;11.484;2023-04-07T13:27:56;6.05;;;4.05;;
43664;SDS011;29263;48.172;11.484;2023-04-07T13:30:23;5.25;;;3.88;;
43664;SDS011;29263;48.172;11.484;2023-04-07T13:32:49;5.40;;;3.70;;
43664;SDS011;29263;48.172;11.484;2023-04-07T13:35:15;3.35;;;3.05;;
43664;SDS011;29263;48.172;11.484;2023-04-07T13:37:42;5.40;;;3.50;;
43664;SDS011;29263;48.172;11.484;2023-04-07T13:40:08;3.78;;;3.00;;
43664;SDS011;29263;48.172;11.484;2023-04-07T13:42:35;5.43;;;3.58;;
43664;SDS011;29263;48.172;11.484;2023-04-07T13:45:00;5.35;;;3.28;;
43664;SDS011;29263;48.172;11.484;2023-04-07T13:47:26;3.97;;;3.15;;
43664;SDS011;29263;48.172;11.484;2023-04-07T13:49:54;5.13;;;3.20;;
43664;SDS011;29263;48.172;11.484;2023-04-07T13:52:20;5.25;;;2.53;;
43664;SDS011;29263;48.172;11.484;2023-04-07T13:54:46;5.60;;;2.90;;
43664;SDS011;29263;48.172;11.484;2023-04-07T13:57:11;4.20;;;2.90;;
43664;SDS011;29263;48.172;11.484;2023-04-07T13:59:44;6.40;;;3.38;;
43664;SDS011;29263;48.172;11.484;2023-04-07T14:02:10;6.10;;;3.70;;
43664;SDS011;29263;48.172;11.484;2023-04-07T14:04:36;5.65;;;3.08;;
43664;SDS011;29263;48.172;11.484;2023-04-07T14:07:02;4.88;;;3.50;;
43664;SDS011;29263;48.172;11.484;2023-04-07T14:09:27;4.93;;;3.58;;
43664;SDS011;29263;48.172;11.484;2023-04-07T14:11:53;4.18;;;2.53;;
43664;SDS011;29263;48.172;11.484;2023-04-07T14:14:19;4.40;;;3.50;;
43664;SDS011;29263;48.172;11.484;2023-04-07T14:16:45;3.15;;;2.60;;
43664;SDS011;29263;48.172;11.484;2023-04-07T14:19:11;3.92;;;2.88;;
43664;SDS011;29263;48.172;11.484;2023-04-07T14:21:36;4.05;;;3.13;;
43664;SDS011;29263;48.172;11.484;2023-04-07T14:24:02;5.22;;;3.03;;
43664;SDS011;29263;48.172;11.484;2023-04-07T14:26:27;6.38;;;3.08;;
43664;SDS011;29263;48.172;11.484;2023-04-07T14:28:53;4.55;;;2.60;;
43664;SDS011;29263;48.172;11.484;2023-04-07T14:31:19;5.07;;;3.83;;
43664;SDS011;29263;48.172;11.484;2023-04-07T14:33:44;4.18;;;3.00;;
43664;SDS011;29263;48.172;11.484;2023-04-07T14:36:12;3.15;;;2.60;;
43664;SDS011;29263;48.172;11.484;2023-04-07T14:38:42;3.83;;;2.95;;
43664;SDS011;29263;48.172;11.484;2023-04-07T14:41:08;4.47;;;3.30;;
43664;SDS011;29263;48.172;11.484;2023-04-07T14:43:34;5.72;;;3.78;;
43664;SDS011;29263;48.172;11.484;2023-04-07T14:46:00;4.30;;;3.10;;
43664;SDS011;29263;48.172;11.484;2023-04-07T14:48:26;4.90;;;3.53;;
43664;SDS011;29263;48.172;11.484;2023-04-07T14:50:52;4.22;;;2.83;;
43664;SDS011;29263;48.172;11.484;2023-04-07T14:53:17;5.22;;;3.28;;
43664;SDS011;29263;48.172;11.484;2023-04-07T14:55:43;7.68;;;3.80;;
43664;SDS011;29263;48.172;11.484;2023-04-07T14:58:09;7.97;;;4.97;;
43664;SDS011;29263;48.172;11.484;2023-04-07T15:00:34;5.70;;;3.70;;
43664;SDS011;29263;48.172;11.484;2023-04-07T15:03:00;5.90;;;3.15;;
43664;SDS011;29263;48.172;11.484;2023-04-07T15:05:26;5.15;;;2.78;;
43664;SDS011;29263;48.172;11.484;2023-04-07T15:07:53;3.97;;;3.05;;
43664;SDS011;29263;48.172;11.484;2023-04-07T15:10:19;3.85;;;3.08;;
43664;SDS011;29263;48.172;11.484;2023-04-07T15:12:44;3.78;;;3.00;;
43664;SDS011;29263;48.172;11.484;2023-04-07T15:15:11;5.80;;;3.08;;
43664;SDS011;29263;48.172;11.484;2023-04-07T15:17:37;4.40;;;2.70;;
43664;SDS011;29263;48.172;11.484;2023-04-07T15:20:03;3.15;;;2.53;;
43664;SDS011;29263;48.172;11.484;2023-04-07T15:22:29;5.05;;;2.97;;
43664;SDS011;29263;48.172;11.484;2023-04-07T15:24:55;4.05;;;2.88;;
43664;SDS011;29263;48.172;11.484;2023-04-07T15:27:20;3.55;;;2.95;;
43664;SDS011;29263;48.172;11.484;2023-04-07T15:29:46;5.47;;;3.20;;
43664;SDS011;29263;48.172;11.484;2023-04-07T15:32:12;5.07;;;3.63;;
43664;SDS011;29263;48.172;11.484;2023-04-07T15:34:37;4.40;;;3.47;;
43664;SDS011;29263;48.172;11.484;2023-04-07T15:37:03;3.55;;;3.13;;
43664;SDS011;29263;48.172;11.484;2023-04-07T15:39:29;4.25;;;2.58;;
43664;SDS011;29263;48.172;11.484;2023-04-07T15:41:54;3.92;;;2.90;;
43664;SDS011;29263;48.172;11.484;2023-04-07T15:44:20;4.20;;;2.85;;
43664;SDS011;29263;48.172;11.484;2023-04-07T15:46:46;4.00;;;2.83;;
43664;SDS011;29263;48.172;11.484;2023-04-07T15:49:12;6.15;;;2.90;;
43664;SDS011;29263;48.172;11.484;2023-04-07T15:51:43;4.22;;;3.38;;
43664;SDS011;29263;48.172;11.484;2023-04-07T15:54:10;3.70;;;2.80;;
43664;SDS011;29263;48.172;11.484;2023-04-07T15:56:38;5.32;;;3.15;;
43664;SDS011;29263;48.172;11.484;2023-04-07T15:59:04;3.40;;;2.80;;
43664;SDS011;29263;48.172;11.484;2023-04-07T16:01:30;4.20;;;3.15;;
43664;SDS011;29263;48.172;11.484;2023-04-07T16:03:56;4.70;;;3.15;;
43664;SDS011;29263;48.172;11.484;2023-04-07T16:06:22;4.47;;;3.10;;
43664;SDS011;29263;48.172;11.484;2023-04-07T16:08:47;5.68;;;2.95;;
43664;SDS011;29263;48.172;11.484;2023-04-07T16:11:13;3.65;;;2.88;;
43664;SDS011;29263;48.172;11.484;2023-04-07T16:13:39;4.78;;;2.85;;
43664;SDS011;29263;48.172;11.484;2023-04-07T16:16:04;4.32;;;3.50;;
43664;SDS011;29263;48.172;11.484;2023-04-07T16:18:31;5.18;;;4.25;;
43664;SDS011;29263;48.172;11.484;2023-04-07T16:20:57;6.25;;;3.88;;
43664;SDS011;29263;48.172;11.484;2023-04-07T16:23:23;4.72;;;3.53;;
43664;SDS011;29263;48.172;11.484;2023-04-07T16:25:48;6.35;;;4.22;;
43664;SDS011;29263;48.172;11.484;2023-04-07T16:28:14;8.75;;;3.80;;
43664;SDS011;29263;48.172;11.484;2023-04-07T16:30:40;5.72;;;4.70;;
43664;SDS011;29263;48.172;11.484;2023-04-07T16:33:06;4.47;;;3.35;;
43664;SDS011;29263;48.172;11.484;2023-04-07T16:35:32;5.22;;;2.67;;
43664;SDS011;29263;48.172;11.484;2023-04-07T16:37:57;4.38;;;2.60;;
43664;SDS011;29263;48.172;11.484;2023-04-07T16:40:25;3.92;;;2.72;;
43664;SDS011;29263;48.172;11.484;2023-04-07T16:42:51;4.53;;;3.10;;
43664;SDS011;29263;48.172;11.484;2023-04-07T16:45:17;5.20;;;3.90;;
43664;SDS011;29263;48.172;11.484;2023-04-07T16:47:42;4.78;;;3.58;;
43664;SDS011;29263;48.172;11.484;2023-04-07T16:50:08;3.75;;;3.20;;
43664;SDS011;29263;48.172;11.484;2023-04-07T16:52:34;5.43;;;3.42;;
43664;SDS011;29263;48.172;11.484;2023-04-07T16:55:00;6.47;;;3.42;;
43664;SDS011;29263;48.172;11.484;2023-04-07T16:57:27;7.05;;;4.55;;
43664;SDS011;29263;48.172;11.484;2023-04-07T16:59:52;5.97;;;3.50;;
43664;SDS011;29263;48.172;11.484;2023-04-07T17:02:18;5.93;;;3.78;;
43664;SDS011;29263;48.172;11.484;2023-04-07T17:04:44;5.70;;;3.60;;
43664;SDS011;29263;48.172;11.484;2023-04-07T17:07:09;4.30;;;3.65;;
43664;SDS011;29263;48.172;11.484;2023-04-07T17:09:36;4.65;;;3.65;;
43664;SDS011;29263;48.172;11.484;2023-04-07T17:12:02;5.63;;;3.60;;
43664;SDS011;29263;48.172;11.484;2023-04-07T17:14:28;3.80;;;2.83;;
43664;SDS011;29263;48.172;11.484;2023-04-07T17:16:54;6.72;;;3.75;;
43664;SDS011;29263;48.172;11.484;2023-04-07T17:19:20;4.35;;;3.92;;
43664;SDS011;29263;48.172;11.484;2023-04-07T17:21:46;4.53;;;3.47;;
43664;SDS011;29263;48.172;11.484;2023-04-07T17:24:12;5.63;;;3.30;;
43664;SDS011;29263;48.172;11.484;2023-04-07T17:26:41;6.35;;;3.47;;
43664;SDS011;29263;48.172;11.484;2023-04-07T17:29:07;5.50;;;2.80;;
43664;SDS011;29263;48.172;11.484;2023-04-07T17:31:33;4.90;;;3.53;;
43664;SDS011;29263;48.172;11.484;2023-04-07T17:34:00;4.00;;;3.00;;
43664;SDS011;29263;48.172;11.484;2023-04-07T17:36:27;4.97;;;3.13;;
43664;SDS011;29263;48.172;11.484;2023-04-07T17:38:53;3.67;;;2.90;;
43664;SDS011;29263;48.172;11.484;2023-04-07T17:41:19;3.53;;;2.83;;
43664;SDS011;29263;48.172;11.484;2023-04-07T17:43:45;4.33;;;3.00;;
43664;SDS011;29263;48.172;11.484;2023-04-07T17:46:11;5.00;;;2.97;;
43664;SDS011;29263;48.172;11.484;2023-04-07T17:48:36;5.10;;;3.20;;
43664;SDS011;29263;48.172;11.484;2023-04-07T17:51:02;4.20;;;3.00;;
43664;SDS011;29263;48.172;11.484;2023-04-07T17:53:28;4.53;;;2.97;;
43664;SDS011;29263;48.172;11.484;2023-04-07T17:55:55;6.25;;;3.35;;
43664;SDS011;29263;48.172;11.484;2023-04-07T17:58:21;4.22;;;2.88;;
43664;SDS011;29263;48.172;11.484;2023-04-07T18:00:46;5.30;;;2.33;;
43664;SDS011;29263;48.172;11.484;2023-04-07T18:03:15;3.20;;;2.70;;
43664;SDS011;29263;48.172;11.484;2023-04-07T18:05:44;4.93;;;2.80;;
43664;SDS011;29263;48.172;11.484;2023-04-07T18:08:10;4.38;;;3.03;;
43664;SDS011;29263;48.172;11.484;2023-04-07T18:10:36;5.87;;;2.73;;
43664;SDS011;29263;48.172;11.484;2023-04-07T18:13:02;4.40;;;3.13;;
43664;SDS011;29263;48.172;11.484;2023-04-07T18:15:29;4.00;;;3.13;;
43664;SDS011;29263;48.172;11.484;2023-04-07T18:17:55;6.73;;;3.10;;
43664;SDS011;29263;48.172;11.484;2023-04-07T18:20:21;4.10;;;2.70;;
43664;SDS011;29263;48.172;11.484;2023-04-07T18:22:48;4.03;;;2.93;;
43664;SDS011;29263;48.172;11.484;2023-04-07T18:25:15;3.73;;;2.90;;
43664;SDS011;29263;48.172;11.484;2023-04-07T18:27:41;4.57;;;3.10;;
43664;SDS011;29263;48.172;11.484;2023-04-07T18:30:06;4.80;;;3.00;;
43664;SDS011;29263;48.172;11.484;2023-04-07T18:32:33;6.97;;;5.10;;
43664;SDS011;29263;48.172;11.484;2023-04-07T18:34:58;5.70;;;3.60;;
43664;SDS011;29263;48.172;11.484;2023-04-07T18:37:24;5.13;;;3.67;;
43664;SDS011;29263;48.172;11.484;2023-04-07T18:39:50;5.17;;;3.13;;
43664;SDS011;29263;48.172;11.484;2023-04-07T18:42:18;6.80;;;3.13;;
43664;SDS011;29263;48.172;11.484;2023-04-07T18:44:44;4.97;;;3.43;;
43664;SDS011;29263;48.172;11.484;2023-04-07T18:47:10;6.77;;;3.73;;
43664;SDS011;29263;48.172;11.484;2023-04-07T18:49:35;7.13;;;4.10;;
43664;SDS011;29263;48.172;11.484;2023-04-07T18:52:01;7.43;;;4.33;;
43664;SDS011;29263;48.172;11.484;2023-04-07T18:54:28;8.13;;;5.00;;
43664;SDS011;29263;48.172;11.484;2023-04-07T18:56:53;13.97;;;6.73;;
43664;SDS011;29263;48.172;11.484;2023-04-07T18:59:20;12.30;;;6.83;;
43664;SDS011;29263;48.172;11.484;2023-04-07T19:01:46;12.50;;;7.33;;
43664;SDS011;29263;48.172;11.484;2023-04-07T19:04:11;15.67;;;6.47;;
43664;SDS011;29263;48.172;11.484;2023-04-07T19:06:39;11.20;;;6.70;;
43664;SDS011;29263;48.172;11.484;2023-04-07T19:09:04;12.30;;;7.33;;
43664;SDS011;29263;48.172;11.484;2023-04-07T19:11:30;11.33;;;6.53;;
43664;SDS011;29263;48.172;11.484;2023-04-07T19:13:56;11.00;;;6.30;;
43664;SDS011;29263;48.172;11.484;2023-04-07T19:16:22;15.07;;;7.10;;
43664;SDS011;29263;48.172;11.484;2023-04-07T19:18:51;10.63;;;6.40;;
43664;SDS011;29263;48.172;11.484;2023-04-07T19:21:17;12.20;;;6.60;;
43664;SDS011;29263;48.172;11.484;2023-04-07T19:23:43;12.77;;;6.83;;
43664;SDS011;29263;48.172;11.484;2023-04-07T19:26:12;12.77;;;7.13;;
43664;SDS011;29263;48.172;11.484;2023-04-07T19:28:38;17.00;;;8.47;;
43664;SDS011;29263;48.172;11.484;2023-04-07T19:31:05;11.93;;;7.07;;
43664;SDS011;29263;48.172;11.484;2023-04-07T19:33:32;12.53;;;7.37;;
43664;SDS011;29263;48.172;11.484;2023-04-07T19:35:58;10.10;;;6.00;;
43664;SDS011;29263;48.172;11.484;2023-04-07T19:38:24;11.10;;;6.53;;
43664;SDS011;29263;48.172;11.484;2023-04-07T19:40:50;10.53;;;6.20;;
43664;SDS011;29263;48.172;11.484;2023-04-07T19:43:15;9.67;;;6.03;;
43664;SDS011;29263;48.172;11.484;2023-04-07T19:45:41;12.30;;;7.27;;
43664;SDS011;29263;48.172;11.484;2023-04-07T19:48:07;10.33;;;6.50;;
43664;SDS011;29263;48.172;11.484;2023-04-07T19:50:32;8.33;;;5.73;;
43664;SDS011;29263;48.172;11.484;2023-04-07T19:53:05;11.27;;;5.87;;
43664;SDS011;29263;48.172;11.484;2023-04-07T19:55:30;11.30;;;6.20;;
43664;SDS011;29263;48.172;11.484;2023-04-07T19:57:56;9.50;;;6.23;;
43664;SDS011;29263;48.172;11.484;2023-04-07T20:00:22;11.50;;;6.30;;
43664;SDS011;29263;48.172;11.484;2023-04-07T20:02:48;8.60;;;5.70;;
43664;SDS011;29263;48.172;11.484;2023-04-07T20:05:13;9.13;;;6.33;;
43664;SDS011;29263;48.172;11.484;2023-04-07T20:07:39;7.60;;;5.23;;
43664;SDS011;29263;48.172;11.484;2023-04-07T20:10:05;8.30;;;5.90;;
43664;SDS011;29263;48.172;11.484;2023-04-07T20:12:31;9.50;;;5.60;;
43664;SDS011;29263;48.172;11.484;2023-04-07T20:14:57;8.77;;;6.23;;
43664;SDS011;29263;48.172;11.484;2023-04-07T20:17:23;9.60;;;5.50;;
43664;SDS011;29263;48.172;11.484;2023-04-07T20:19:48;7.60;;;5.67;;
43664;SDS011;29263;48.172;11.484;2023-04-07T20:22:17;9.82;;;5.30;;
43664;SDS011;29263;48.172;11.484;2023-04-07T20:24:43;9.70;;;5.97;;
43664;SDS011;29263;48.172;11.484;2023-04-07T20:27:08;7.67;;;5.43;;
43664;SDS011;29263;48.172;11.484;2023-04-07T20:29:34;8.33;;;5.67;;
43664;SDS011;29263;48.172;11.484;2023-04-07T20:32:00;9.53;;;5.80;;
43664;SDS011;29263;48.172;11.484;2023-04-07T20:34:25;7.83;;;5.40;;
43664;SDS011;29263;48.172;11.484;2023-04-07T20:36:51;8.40;;;5.40;;
43664;SDS011;29263;48.172;11.484;2023-04-07T20:39:17;7.27;;;5.37;;
43664;SDS011;29263;48.172;11.484;2023-04-07T20:41:43;7.77;;;5.23;;
43664;SDS011;29263;48.172;11.484;2023-04-07T20:44:09;9.80;;;5.53;;
43664;SDS011;29263;48.172;11.484;2023-04-07T20:46:35;8.37;;;5.70;;
43664;SDS011;29263;48.172;11.484;2023-04-07T20:49:01;9.13;;;5.30;;
43664;SDS011;29263;48.172;11.484;2023-04-07T20:51:27;9.10;;;5.10;;
43664;SDS011;29263;48.172;11.484;2023-04-07T20:53:54;7.13;;;5.73;;
43664;SDS011;29263;48.172;11.484;2023-04-07T20:56:20;8.30;;;5.93;;
43664;SDS011;29263;48.172;11.484;2023-04-07T20:58:45;10.47;;;5.80;;
43664;SDS011;29263;48.172;11.484;2023-04-07T21:01:12;9.00;;;6.37;;
43664;SDS011;29263;48.172;11.484;2023-04-07T21:03:37;7.00;;;5.57;;
43664;SDS011;29263;48.172;11.484;2023-04-07T21:06:03;8.43;;;6.20;;
43664;SDS011;29263;48.172;11.484;2023-04-07T21:08:29;8.47;;;5.50;;
43664;SDS011;29263;48.172;11.484;2023-04-07T21:10:54;8.97;;;5.80;;
43664;SDS011;29263;48.172;11.484;2023-04-07T21:13:20;7.67;;;5.73;;
43664;SDS011;29263;48.172;11.484;2023-04-07T21:15:46;8.40;;;5.63;;
43664;SDS011;29263;48.172;11.484;2023-04-07T21:18:12;8.30;;;5.37;;
43664;SDS011;29263;48.172;11.484;2023-04-07T21:20:37;7.23;;;5.10;;
43664;SDS011;29263;48.172;11.484;2023-04-07T21:23:04;7.23;;;5.20;;
43664;SDS011;29263;48.172;11.484;2023-04-07T21:25:31;6.70;;;4.90;;
43664;SDS011;29263;48.172;11.484;2023-04-07T21:27:57;11.20;;;5.30;;
43664;SDS011;29263;48.172;11.484;2023-04-07T21:30:23;10.10;;;5.23;;
43664;SDS011;29263;48.172;11.484;2023-04-07T21:32:48;7.67;;;4.83;;
43664;SDS011;29263;48.172;11.484;2023-04-07T21:35:14;5.70;;;4.90;;
43664;SDS011;29263;48.172;11.484;2023-04-07T21:37:40;7.33;;;4.40;;
43664;SDS011;29263;48.172;11.484;2023-04-07T21:40:05;8.03;;;5.67;;
43664;SDS011;29263;48.172;11.484;2023-04-07T21:42:32;7.53;;;5.17;;
43664;SDS011;29263;48.172;11.484;2023-04-07T21:44:58;7.70;;;5.27;;
43664;SDS011;29263;48.172;11.484;2023-04-07T21:47:23;10.80;;;5.27;;
43664;SDS011;29263;48.172;11.484;2023-04-07T21:49:49;6.97;;;4.93;;
43664;SDS011;29263;48.172;11.484;2023-04-07T21:52:15;8.00;;;5.53;;
43664;SDS011;29263;48.172;11.484;2023-04-07T21:54:41;8.27;;;5.67;;
43664;SDS011;29263;48.172;11.484;2023-04-07T21:57:08;10.97;;;6.70;;
43664;SDS011;29263;48.172;11.484;2023-04-07T21:59:34;8.70;;;6.40;;
43664;SDS011;29263;48.172;11.484;2023-04-07T22:02:00;9.03;;;6.33;;
43664;SDS011;29263;48.172;11.484;2023-04-07T22:04:27;10.10;;;5.87;;
43664;SDS011;29263;48.172;11.484;2023-04-07T22:06:53;10.47;;;5.80;;
43664;SDS011;29263;48.172;11.484;2023-04-07T22:09:19;9.33;;;5.83;;
43664;SDS011;29263;48.172;11.484;2023-04-07T22:11:45;9.00;;;6.20;;
43664;SDS011;29263;48.172;11.484;2023-04-07T22:14:10;9.53;;;6.27;;
43664;SDS011;29263;48.172;11.484;2023-04-07T22:16:36;8.63;;;6.03;;
43664;SDS011;29263;48.172;11.484;2023-04-07T22:19:01;9.33;;;6.87;;
43664;SDS011;29263;48.172;11.484;2023-04-07T22:21:27;6.53;;;5.50;;
43664;SDS011;29263;48.172;11.484;2023-04-07T22:23:53;8.87;;;6.80;;
43664;SDS011;29263;48.172;11.484;2023-04-07T22:26:19;10.03;;;6.77;;
43664;SDS011;29263;48.172;11.484;2023-04-07T22:28:45;8.47;;;5.97;;
43664;SDS011;29263;48.172;11.484;2023-04-07T22:31:10;8.80;;;6.07;;
43664;SDS011;29263;48.172;11.484;2023-04-07T22:33:36;9.77;;;5.83;;
43664;SDS011;29263;48.172;11.484;2023-04-07T22:36:02;9.90;;;5.83;;
43664;SDS011;29263;48.172;11.484;2023-04-07T22:38:28;12.47;;;6.07;;
43664;SDS011;29263;48.172;11.484;2023-04-07T22:40:53;11.73;;;6.50;;
43664;SDS011;29263;48.172;11.484;2023-04-07T22:43:19;14.73;;;6.47;;
43664;SDS011;29263;48.172;11.484;2023-04-07T22:45:44;9.20;;;6.87;;
43664;SDS011;29263;48.172;11.484;2023-04-07T22:48:10;9.87;;;6.30;;
43664;SDS011;29263;48.172;11.484;2023-04-07T22:50:36;9.40;;;6.57;;
43664;SDS011;29263;48.172;11.484;2023-04-07T22:53:02;13.53;;;7.30;;
43664;SDS011;29263;48.172;11.484;2023-04-07T22:55:28;10.60;;;6.73;;
43664;SDS011;29263;48.172;11.484;2023-04-07T22:57:53;11.00;;;6.47;;